sensor_id;sensor_type;location;lat;lon;timestamp;pressure;altitude;pressure_sealevel;temperature;humidity
71917;BME280;59793;46.506;6.674;2023-02-22T00:00:21;97099.91;;;9.28;64.08
71917;BME280;59793;46.506;6.674;2023-02-22T00:02:54;97100.03;;;9.32;64.02
71917;BME280;59793;46.506;6.674;2023-02-22T00:05:25;97091.72;;;9.30;63.86
71917;BME280;59793;46.506;6.674;2023-02-22T00:07:51;97077.25;;;9.12;64.36
71917;BME280;59793;46.506;6.674;2023-02-22T00:10:17;97090.19;;;9.17;64.43
71917;BME280;59793;46.506;6.674;2023-02-22T00:12:46;97091.28;;;9.28;64.11
71917;BME280;59793;46.506;6.674;2023-02-22T00:15:15;97108.13;;;9.51;63.55
71917;BME280;59793;46.506;6.674;2023-02-22T00:17:40;97074.41;;;9.04;64.14
71917;BME280;59793;46.506;6.674;2023-02-22T00:20:07;97100.50;;;9.09;64.79
71917;BME280;59793;46.506;6.674;2023-02-22T00:22:34;97093.47;;;8.89;65.33
71917;BME280;59793;46.506;6.674;2023-02-22T00:24:59;97053.06;;;8.69;65.38
71917;BME280;59793;46.506;6.674;2023-02-22T00:27:25;97092.81;;;8.92;65.64
71917;BME280;59793;46.506;6.674;2023-02-22T00:29:50;97062.59;;;8.86;65.16
71917;BME280;59793;46.506;6.674;2023-02-22T00:32:15;97082.19;;;9.13;64.40
71917;BME280;59793;46.506;6.674;2023-02-22T00:34:41;97081.84;;;8.90;65.24
71917;BME280;59793;46.506;6.674;2023-02-22T00:37:09;97086.47;;;9.05;65.17
71917;BME280;59793;46.506;6.674;2023-02-22T00:39:35;97099.38;;;9.10;65.09
71917;BME280;59793;46.506;6.674;2023-02-22T00:42:01;97093.28;;;9.19;64.90
71917;BME280;59793;46.506;6.674;2023-02-22T00:44:26;97075.28;;;9.21;64.32
71917;BME280;59793;46.506;6.674;2023-02-22T00:46:51;97096.53;;;9.40;64.01
71917;BME280;59793;46.506;6.674;2023-02-22T00:49:17;97097.84;;;9.34;64.20
71917;BME280;59793;46.506;6.674;2023-02-22T00:51:43;97099.38;;;9.35;64.09
71917;BME280;59793;46.506;6.674;2023-02-22T00:54:08;97095.31;;;9.38;63.78
71917;BME280;59793;46.506;6.674;2023-02-22T00:56:35;97096.22;;;9.29;64.29
71917;BME280;59793;46.506;6.674;2023-02-22T00:59:02;97077.28;;;8.99;64.93
71917;BME280;59793;46.506;6.674;2023-02-22T01:01:27;97090.84;;;9.26;64.53
71917;BME280;59793;46.506;6.674;2023-02-22T01:03:53;97075.84;;;9.02;65.03
71917;BME280;59793;46.506;6.674;2023-02-22T01:06:19;97066.75;;;8.99;64.53
71917;BME280;59793;46.506;6.674;2023-02-22T01:08:45;97092.38;;;9.02;64.87
71917;BME280;59793;46.506;6.674;2023-02-22T01:11:11;97064.56;;;8.65;65.58
71917;BME280;59793;46.506;6.674;2023-02-22T01:13:37;97091.50;;;8.74;65.92
71917;BME280;59793;46.506;6.674;2023-02-22T01:16:03;97096.44;;;8.88;65.37
71917;BME280;59793;46.506;6.674;2023-02-22T01:18:35;97094.53;;;8.76;65.92
71917;BME280;59793;46.506;6.674;2023-02-22T01:21:01;97065.63;;;8.39;66.66
71917;BME280;59793;46.506;6.674;2023-02-22T01:23:26;97034.56;;;8.41;65.87
71917;BME280;59793;46.506;6.674;2023-02-22T01:25:52;97081.22;;;8.81;65.58
71917;BME280;59793;46.506;6.674;2023-02-22T01:28:18;97076.06;;;8.84;65.62
71917;BME280;59793;46.506;6.674;2023-02-22T01:30:44;97043.22;;;8.78;65.73
71917;BME280;59793;46.506;6.674;2023-02-22T01:33:09;97067.22;;;9.01;65.15
71917;BME280;59793;46.506;6.674;2023-02-22T01:35:37;97063.25;;;8.83;65.33
71917;BME280;59793;46.506;6.674;2023-02-22T01:38:06;97075.84;;;9.02;65.03
71917;BME280;59793;46.506;6.674;2023-02-22T01:40:40;97074.44;;;8.80;65.65
71917;BME280;59793;46.506;6.674;2023-02-22T01:43:28;97076.50;;;8.74;66.22
71917;BME280;59793;46.506;6.674;2023-02-22T01:48:41;97067.28;;;8.68;66.31
71917;BME280;59793;46.506;6.674;2023-02-22T01:51:24;97063.38;;;8.74;66.72
71917;BME280;59793;46.506;6.674;2023-02-22T01:54:00;97074.44;;;8.80;66.74
71917;BME280;59793;46.506;6.674;2023-02-22T01:56:29;97062.59;;;8.74;67.44
71917;BME280;59793;46.506;6.674;2023-02-22T01:59:04;97041.69;;;8.65;68.63
71917;BME280;59793;46.506;6.674;2023-02-22T02:01:31;97045.53;;;8.68;69.40
71917;BME280;59793;46.506;6.674;2023-02-22T02:03:59;97068.81;;;8.69;68.56
71917;BME280;59793;46.506;6.674;2023-02-22T02:06:30;97061.72;;;8.70;67.22
71917;BME280;59793;46.506;6.674;2023-02-22T02:11:41;97060.16;;;8.44;66.61
71917;BME280;59793;46.506;6.674;2023-02-22T02:14:08;97068.72;;;8.20;67.66
71917;BME280;59793;46.506;6.674;2023-02-22T02:16:39;97066.94;;;8.12;67.17
71917;BME280;59793;46.506;6.674;2023-02-22T02:27:37;97045.81;;;8.08;67.23
71917;BME280;59793;46.506;6.674;2023-02-22T02:32:56;97063.38;;;8.29;66.64
71917;BME280;59793;46.506;6.674;2023-02-22T02:41:11;97043.47;;;8.28;65.47
71917;BME280;59793;46.506;6.674;2023-02-22T02:49:12;97061.94;;;8.19;65.70
71917;BME280;59793;46.506;6.674;2023-02-22T02:51:43;97038.47;;;8.02;66.35
71917;BME280;59793;46.506;6.674;2023-02-22T02:54:10;97034.22;;;7.97;66.08
71917;BME280;59793;46.506;6.674;2023-02-22T02:56:37;97056.06;;;8.01;67.00
71917;BME280;59793;46.506;6.674;2023-02-22T02:59:02;97003.09;;;7.75;66.56
71917;BME280;59793;46.506;6.674;2023-02-22T03:13:00;97043.13;;;8.17;66.14
71917;BME280;59793;46.506;6.674;2023-02-22T03:18:08;97036.53;;;8.11;66.41
71917;BME280;59793;46.506;6.674;2023-02-22T03:24:23;97029.59;;;8.27;66.19
71917;BME280;59793;46.506;6.674;2023-02-22T03:26:43;97041.63;;;8.28;66.11
71917;BME280;59793;46.506;6.674;2023-02-22T03:29:13;97044.25;;;8.28;66.22
71917;BME280;59793;46.506;6.674;2023-02-22T03:31:47;97048.09;;;8.31;65.72
71917;BME280;59793;46.506;6.674;2023-02-22T03:34:18;97047.84;;;8.24;66.01
71917;BME280;59793;46.506;6.674;2023-02-22T03:36:49;97035.78;;;8.10;66.37
71917;BME280;59793;46.506;6.674;2023-02-22T03:39:18;97052.88;;;8.29;66.46
71917;BME280;59793;46.506;6.674;2023-02-22T03:41:47;97005.03;;;7.99;66.42
71917;BME280;59793;46.506;6.674;2023-02-22T03:44:16;97041.28;;;8.18;66.93
71917;BME280;59793;46.506;6.674;2023-02-22T03:46:45;97033.78;;;7.95;67.61
71917;BME280;59793;46.506;6.674;2023-02-22T03:52:08;97024.84;;;8.08;66.72
71917;BME280;59793;46.506;6.674;2023-02-22T03:54:33;97041.53;;;7.92;67.45
71917;BME280;59793;46.506;6.674;2023-02-22T03:57:05;97021.50;;;7.87;67.35
71917;BME280;59793;46.506;6.674;2023-02-22T03:59:33;97052.66;;;8.22;66.81
71917;BME280;59793;46.506;6.674;2023-02-22T04:01:58;97035.13;;;8.13;67.11
71917;BME280;59793;46.506;6.674;2023-02-22T04:04:24;97026.16;;;8.02;66.60
71917;BME280;59793;46.506;6.674;2023-02-22T04:06:50;97053.38;;;8.10;66.96
71917;BME280;59793;46.506;6.674;2023-02-22T04:09:16;97025.25;;;7.98;66.49
71917;BME280;59793;46.506;6.674;2023-02-22T04:11:42;97043.19;;;7.96;67.23
71917;BME280;59793;46.506;6.674;2023-02-22T04:14:07;97021.59;;;7.57;67.69
71917;BME280;59793;46.506;6.674;2023-02-22T04:16:33;97048.13;;;7.77;67.78
71917;BME280;59793;46.506;6.674;2023-02-22T04:18:58;97045.44;;;7.85;67.66
71917;BME280;59793;46.506;6.674;2023-02-22T04:21:23;97037.94;;;7.96;67.03
71917;BME280;59793;46.506;6.674;2023-02-22T04:23:49;97059.41;;;8.10;66.85
71917;BME280;59793;46.506;6.674;2023-02-22T04:26:15;97031.34;;;7.90;66.65
71917;BME280;59793;46.506;6.674;2023-02-22T04:28:40;97052.66;;;7.88;66.98
71917;BME280;59793;46.506;6.674;2023-02-22T04:31:06;97005.16;;;7.48;67.11
71917;BME280;59793;46.506;6.674;2023-02-22T04:33:31;97060.69;;;8.04;66.62
71917;BME280;59793;46.506;6.674;2023-02-22T04:35:57;97072.94;;;8.12;66.65
71917;BME280;59793;46.506;6.674;2023-02-22T04:38:24;97066.16;;;8.11;66.64
71917;BME280;59793;46.506;6.674;2023-02-22T04:40:53;97041.66;;;7.95;66.77
71917;BME280;59793;46.506;6.674;2023-02-22T04:43:19;97063.25;;;8.13;66.62
71917;BME280;59793;46.506;6.674;2023-02-22T04:45:44;96987.16;;;7.47;67.16
71917;BME280;59793;46.506;6.674;2023-02-22T04:48:10;97029.13;;;7.80;67.12
71917;BME280;59793;46.506;6.674;2023-02-22T04:50:35;97011.44;;;7.56;67.96
71917;BME280;59793;46.506;6.674;2023-02-22T04:53:00;97064.16;;;7.96;68.23
71917;BME280;59793;46.506;6.674;2023-02-22T04:55:26;97065.94;;;8.04;67.77
71917;BME280;59793;46.506;6.674;2023-02-22T04:57:52;97070.31;;;8.12;67.66
71917;BME280;59793;46.506;6.674;2023-02-22T05:00:18;97065.53;;;8.14;67.66
71917;BME280;59793;46.506;6.674;2023-02-22T05:02:46;97044.22;;;7.83;68.19
71917;BME280;59793;46.506;6.674;2023-02-22T05:05:17;97009.66;;;7.81;67.76
71917;BME280;59793;46.506;6.674;2023-02-22T05:07:43;97031.81;;;7.92;67.83
71917;BME280;59793;46.506;6.674;2023-02-22T05:10:10;97020.72;;;7.86;68.02
71917;BME280;59793;46.506;6.674;2023-02-22T05:12:36;97023.72;;;7.97;67.73
71917;BME280;59793;46.506;6.674;2023-02-22T05:15:03;97054.16;;;8.10;67.77
71917;BME280;59793;46.506;6.674;2023-02-22T05:17:28;97051.19;;;8.12;68.23
71917;BME280;59793;46.506;6.674;2023-02-22T05:19:53;97019.31;;;7.89;68.14
71917;BME280;59793;46.506;6.674;2023-02-22T05:22:19;97016.69;;;7.89;68.52
71917;BME280;59793;46.506;6.674;2023-02-22T05:24:44;97049.31;;;8.12;68.52
71917;BME280;59793;46.506;6.674;2023-02-22T05:27:10;96975.75;;;7.63;68.06
71917;BME280;59793;46.506;6.674;2023-02-22T05:29:36;97007.13;;;7.72;68.69
71917;BME280;59793;46.506;6.674;2023-02-22T05:32:03;97038.13;;;7.91;68.66
71917;BME280;59793;46.506;6.674;2023-02-22T05:34:29;97015.00;;;7.72;68.93
71917;BME280;59793;46.506;6.674;2023-02-22T05:36:55;97029.38;;;7.87;69.66
71917;BME280;59793;46.506;6.674;2023-02-22T05:39:20;97033.94;;;7.78;69.89
71917;BME280;59793;46.506;6.674;2023-02-22T05:41:46;97050.41;;;7.99;70.15
71917;BME280;59793;46.506;6.674;2023-02-22T05:44:11;97041.66;;;7.95;69.58
71917;BME280;59793;46.506;6.674;2023-02-22T05:46:36;97016.81;;;7.93;69.98
71917;BME280;59793;46.506;6.674;2023-02-22T05:49:02;97005.59;;;7.71;70.66
71917;BME280;59793;46.506;6.674;2023-02-22T05:51:27;97052.09;;;7.83;71.30
71917;BME280;59793;46.506;6.674;2023-02-22T05:53:52;97031.31;;;7.78;71.66
71917;BME280;59793;46.506;6.674;2023-02-22T05:56:25;97046.97;;;7.86;71.30
71917;BME280;59793;46.506;6.674;2023-02-22T05:58:51;97050.81;;;7.89;71.73
71917;BME280;59793;46.506;6.674;2023-02-22T06:01:17;97042.59;;;7.90;70.54
71917;BME280;59793;46.506;6.674;2023-02-22T06:03:46;97028.47;;;7.83;70.09
71917;BME280;59793;46.506;6.674;2023-02-22T06:06:12;97014.75;;;7.65;70.96
71917;BME280;59793;46.506;6.674;2023-02-22T06:08:37;97044.94;;;7.71;72.70
71917;BME280;59793;46.506;6.674;2023-02-22T06:11:03;97031.88;;;7.62;72.90
71917;BME280;59793;46.506;6.674;2023-02-22T06:13:28;97013.91;;;7.52;73.09
71917;BME280;59793;46.506;6.674;2023-02-22T06:15:53;97036.75;;;7.73;72.68
71917;BME280;59793;46.506;6.674;2023-02-22T06:18:19;97027.13;;;7.77;72.07
71917;BME280;59793;46.506;6.674;2023-02-22T06:20:44;97041.69;;;7.74;71.86
71917;BME280;59793;46.506;6.674;2023-02-22T06:23:10;97019.88;;;7.61;71.85
71917;BME280;59793;46.506;6.674;2023-02-22T06:25:35;97061.41;;;7.93;71.86
71917;BME280;59793;46.506;6.674;2023-02-22T06:28:01;97056.06;;;8.01;71.79
71917;BME280;59793;46.506;6.674;2023-02-22T06:30:27;97062.78;;;8.11;70.96
71917;BME280;59793;46.506;6.674;2023-02-22T06:32:53;97057.09;;;8.09;71.49
71917;BME280;59793;46.506;6.674;2023-02-22T06:35:18;97025.22;;;7.86;72.20
71917;BME280;59793;46.506;6.674;2023-02-22T06:37:43;97045.34;;;7.94;73.18
71917;BME280;59793;46.506;6.674;2023-02-22T06:40:10;97057.63;;;8.02;73.37
71917;BME280;59793;46.506;6.674;2023-02-22T06:42:37;97065.53;;;8.14;73.63
71917;BME280;59793;46.506;6.674;2023-02-22T06:45:02;97066.41;;;8.19;73.46
71917;BME280;59793;46.506;6.674;2023-02-22T06:47:28;97025.00;;;7.91;73.27
71917;BME280;59793;46.506;6.674;2023-02-22T06:49:54;97067.66;;;8.33;73.45
71917;BME280;59793;46.506;6.674;2023-02-22T06:52:21;97021.97;;;8.01;72.85
71917;BME280;59793;46.506;6.674;2023-02-22T06:54:47;97070.59;;;8.32;72.57
71917;BME280;59793;46.506;6.674;2023-02-22T06:57:12;97071.75;;;8.43;72.58
71917;BME280;59793;46.506;6.674;2023-02-22T06:59:38;97074.19;;;8.48;72.33
71917;BME280;59793;46.506;6.674;2023-02-22T07:02:03;97072.22;;;8.57;71.68
71917;BME280;59793;46.506;6.674;2023-02-22T07:04:29;97077.91;;;8.72;70.95
71917;BME280;59793;46.506;6.674;2023-02-22T07:06:54;97074.75;;;8.66;70.91
71917;BME280;59793;46.506;6.674;2023-02-22T07:09:20;97088.75;;;8.82;70.82
71917;BME280;59793;46.506;6.674;2023-02-22T07:11:45;97070.91;;;8.64;71.62
71917;BME280;59793;46.506;6.674;2023-02-22T07:14:11;97082.75;;;8.82;71.23
71917;BME280;59793;46.506;6.674;2023-02-22T07:16:36;97094.78;;;9.07;71.52
71917;BME280;59793;46.506;6.674;2023-02-22T07:19:02;97096.22;;;9.29;71.03
71917;BME280;59793;46.506;6.674;2023-02-22T07:21:28;97043.56;;;9.01;71.03
71917;BME280;59793;46.506;6.674;2023-02-22T07:23:55;97097.50;;;9.48;70.39
71917;BME280;59793;46.506;6.674;2023-02-22T07:26:22;97100.19;;;9.64;69.85
71917;BME280;59793;46.506;6.674;2023-02-22T07:28:48;97109.25;;;9.78;69.86
71917;BME280;59793;46.506;6.674;2023-02-22T07:31:13;97083.09;;;9.70;69.31
71917;BME280;59793;46.506;6.674;2023-02-22T07:33:39;97090.94;;;9.82;68.62
71917;BME280;59793;46.506;6.674;2023-02-22T07:36:05;97107.19;;;10.00;68.92
71917;BME280;59793;46.506;6.674;2023-02-22T07:38:31;97105.09;;;10.05;68.58
71917;BME280;59793;46.506;6.674;2023-02-22T07:40:56;97092.63;;;10.02;68.46
71917;BME280;59793;46.506;6.674;2023-02-22T07:43:26;97091.38;;;10.12;67.35
71917;BME280;59793;46.506;6.674;2023-02-22T07:45:54;97076.31;;;9.97;67.24
71917;BME280;59793;46.506;6.674;2023-02-22T07:48:22;97079.41;;;10.15;66.97
71917;BME280;59793;46.506;6.674;2023-02-22T07:50:48;97106.75;;;10.38;66.79
71917;BME280;59793;46.506;6.674;2023-02-22T07:53:26;97090.88;;;10.50;66.66
71917;BME280;59793;46.506;6.674;2023-02-22T07:55:55;97105.53;;;10.64;65.36
71917;BME280;59793;46.506;6.674;2023-02-22T07:58:23;97105.16;;;10.81;65.82
71917;BME280;59793;46.506;6.674;2023-02-22T08:00:48;97078.47;;;10.67;65.69
71917;BME280;59793;46.506;6.674;2023-02-22T08:03:16;97095.56;;;10.73;66.03
71917;BME280;59793;46.506;6.674;2023-02-22T08:05:45;97100.56;;;10.94;65.50
71917;BME280;59793;46.506;6.674;2023-02-22T08:08:11;97107.38;;;10.95;65.44
71917;BME280;59793;46.506;6.674;2023-02-22T08:10:38;97088.84;;;10.75;64.56
71917;BME280;59793;46.506;6.674;2023-02-22T08:13:04;97098.69;;;11.10;63.75
71917;BME280;59793;46.506;6.674;2023-02-22T08:15:33;97108.09;;;11.27;63.21
71917;BME280;59793;46.506;6.674;2023-02-22T08:18:04;97103.81;;;11.03;64.81
71917;BME280;59793;46.506;6.674;2023-02-22T08:20:29;97114.25;;;11.31;64.53
71917;BME280;59793;46.506;6.674;2023-02-22T08:22:56;97114.16;;;11.63;63.81
71917;BME280;59793;46.506;6.674;2023-02-22T08:25:24;97117.81;;;11.93;62.90
71917;BME280;59793;46.506;6.674;2023-02-22T08:27:50;97105.66;;;12.08;62.78
71917;BME280;59793;46.506;6.674;2023-02-22T08:30:19;97117.91;;;12.16;61.57
71917;BME280;59793;46.506;6.674;2023-02-22T08:32:46;97109.34;;;12.23;61.90
71917;BME280;59793;46.506;6.674;2023-02-22T08:35:12;97108.59;;;12.23;61.89
71917;BME280;59793;46.506;6.674;2023-02-22T08:37:46;97095.50;;;12.30;61.68
71917;BME280;59793;46.506;6.674;2023-02-22T08:40:12;97108.06;;;12.36;61.69
71917;BME280;59793;46.506;6.674;2023-02-22T08:42:37;97109.88;;;12.32;62.14
71917;BME280;59793;46.506;6.674;2023-02-22T08:45:03;97100.84;;;11.75;62.80
71917;BME280;59793;46.506;6.674;2023-02-22T08:47:28;97104.44;;;12.02;61.33
71917;BME280;59793;46.506;6.674;2023-02-22T08:49:54;97098.09;;;12.07;61.24
71917;BME280;59793;46.506;6.674;2023-02-22T08:52:19;97101.03;;;12.44;61.07
71917;BME280;59793;46.506;6.674;2023-02-22T08:54:46;97110.81;;;12.43;60.79
71917;BME280;59793;46.506;6.674;2023-02-22T08:57:11;97113.28;;;12.33;61.84
71917;BME280;59793;46.506;6.674;2023-02-22T08:59:37;97092.25;;;11.98;62.08
71917;BME280;59793;46.506;6.674;2023-02-22T09:02:02;97128.44;;;11.97;62.84
71917;BME280;59793;46.506;6.674;2023-02-22T09:04:28;97126.16;;;11.95;62.82
71917;BME280;59793;46.506;6.674;2023-02-22T09:06:53;97079.00;;;11.39;63.95
71917;BME280;59793;46.506;6.674;2023-02-22T09:09:19;97120.28;;;11.67;63.77
71917;BME280;59793;46.506;6.674;2023-02-22T09:11:48;97093.25;;;11.54;63.85
71917;BME280;59793;46.506;6.674;2023-02-22T09:14:14;97098.81;;;11.49;63.82
71917;BME280;59793;46.506;6.674;2023-02-22T09:16:42;97094.53;;;11.44;63.99
71917;BME280;59793;46.506;6.674;2023-02-22T09:19:07;97101.38;;;11.65;63.92
71917;BME280;59793;46.506;6.674;2023-02-22T09:21:33;97115.28;;;11.81;63.56
71917;BME280;59793;46.506;6.674;2023-02-22T09:23:58;97093.66;;;11.91;63.23
71917;BME280;59793;46.506;6.674;2023-02-22T09:26:29;97097.53;;;11.98;63.70
71917;BME280;59793;46.506;6.674;2023-02-22T09:28:55;97107.16;;;12.29;62.76
71917;BME280;59793;46.506;6.674;2023-02-22T09:31:20;97071.25;;;12.24;61.44
71917;BME280;59793;46.506;6.674;2023-02-22T09:33:45;97103.75;;;12.48;60.74
71917;BME280;59793;46.506;6.674;2023-02-22T09:36:11;97052.69;;;12.20;61.62
71917;BME280;59793;46.506;6.674;2023-02-22T09:38:36;97084.81;;;12.46;61.37
71917;BME280;59793;46.506;6.674;2023-02-22T09:41:25;97107.16;;;12.71;61.47
71917;BME280;59793;46.506;6.674;2023-02-22T09:44:10;97107.91;;;12.72;61.27
71917;BME280;59793;46.506;6.674;2023-02-22T09:46:41;97087.66;;;12.79;61.09
71917;BME280;59793;46.506;6.674;2023-02-22T09:49:34;97096.44;;;13.10;60.13
71917;BME280;59793;46.506;6.674;2023-02-22T09:55:27;97095.28;;;13.60;58.56
71917;BME280;59793;46.506;6.674;2023-02-22T09:57:57;97097.09;;;13.86;57.55
71917;BME280;59793;46.506;6.674;2023-02-22T10:00:45;97095.28;;;13.94;56.40
71917;BME280;59793;46.506;6.674;2023-02-22T10:05:42;97094.50;;;13.90;56.34
71917;BME280;59793;46.506;6.674;2023-02-22T10:08:16;97098.31;;;13.93;57.12
71917;BME280;59793;46.506;6.674;2023-02-22T10:10:44;97098.69;;;13.95;56.84
71917;BME280;59793;46.506;6.674;2023-02-22T10:16:00;97083.59;;;13.65;57.53
71917;BME280;59793;46.506;6.674;2023-02-22T10:23:33;97089.38;;;13.74;56.76
71917;BME280;59793;46.506;6.674;2023-02-22T10:26:19;97092.31;;;13.96;56.92
71917;BME280;59793;46.506;6.674;2023-02-22T10:28:57;97082.59;;;14.07;55.07
71917;BME280;59793;46.506;6.674;2023-02-22T10:31:31;97078.78;;;14.42;54.50
71917;BME280;59793;46.506;6.674;2023-02-22T10:34:09;97071.56;;;14.39;54.64
71917;BME280;59793;46.506;6.674;2023-02-22T10:36:36;97079.66;;;15.01;52.66
71917;BME280;59793;46.506;6.674;2023-02-22T10:39:26;97083.59;;;15.25;51.49
71917;BME280;59793;46.506;6.674;2023-02-22T10:41:56;97083.78;;;14.95;51.28
71917;BME280;59793;46.506;6.674;2023-02-22T10:44:22;97071.59;;;14.42;52.47
71917;BME280;59793;46.506;6.674;2023-02-22T10:46:47;97072.28;;;14.35;54.00
71917;BME280;59793;46.506;6.674;2023-02-22T10:49:19;97069.25;;;13.66;55.71
71917;BME280;59793;46.506;6.674;2023-02-22T10:51:58;97061.50;;;13.50;56.01
71917;BME280;59793;46.506;6.674;2023-02-22T10:54:28;97075.34;;;13.70;55.79
71917;BME280;59793;46.506;6.674;2023-02-22T10:56:56;97076.44;;;13.39;56.91
71917;BME280;59793;46.506;6.674;2023-02-22T10:59:40;97059.00;;;13.08;57.31
71917;BME280;59793;46.506;6.674;2023-02-22T11:02:24;97074.53;;;13.66;57.25
71917;BME280;59793;46.506;6.674;2023-02-22T11:04:53;97068.03;;;13.60;55.96
71917;BME280;59793;46.506;6.674;2023-02-22T11:07:32;97077.00;;;13.52;57.17
71917;BME280;59793;46.506;6.674;2023-02-22T11:10:04;97068.75;;;13.04;58.20
71917;BME280;59793;46.506;6.674;2023-02-22T11:12:39;97049.97;;;12.86;57.69
71917;BME280;59793;46.506;6.674;2023-02-22T11:17:44;97068.94;;;13.71;56.73
71917;BME280;59793;46.506;6.674;2023-02-22T11:20:27;97040.25;;;12.67;58.98
71917;BME280;59793;46.506;6.674;2023-02-22T11:23:01;97042.28;;;12.77;58.25
71917;BME280;59793;46.506;6.674;2023-02-22T11:25:47;97048.59;;;12.69;58.65
71917;BME280;59793;46.506;6.674;2023-02-22T11:28:34;97055.19;;;12.82;59.08
71917;BME280;59793;46.506;6.674;2023-02-22T11:31:24;97058.03;;;12.70;59.83
71917;BME280;59793;46.506;6.674;2023-02-22T11:34:01;97045.47;;;12.86;58.93
71917;BME280;59793;46.506;6.674;2023-02-22T11:36:38;97056.56;;;13.22;57.96
71917;BME280;59793;46.506;6.674;2023-02-22T11:39:05;97047.34;;;13.39;58.12
71917;BME280;59793;46.506;6.674;2023-02-22T11:41:45;97040.13;;;13.36;57.45
71917;BME280;59793;46.506;6.674;2023-02-22T11:46:48;97017.59;;;12.66;59.05
71917;BME280;59793;46.506;6.674;2023-02-22T11:49:15;97040.56;;;12.62;59.44
71917;BME280;59793;46.506;6.674;2023-02-22T11:52:17;97043.19;;;12.39;60.74
71917;BME280;59793;46.506;6.674;2023-02-22T11:55:16;97037.78;;;12.78;59.15
71917;BME280;59793;46.506;6.674;2023-02-22T12:00:53;97042.91;;;13.20;57.77
71917;BME280;59793;46.506;6.674;2023-02-22T12:06:47;97024.25;;;13.09;58.54
71917;BME280;59793;46.506;6.674;2023-02-22T12:09:21;97024.47;;;13.24;58.42
71917;BME280;59793;46.506;6.674;2023-02-22T12:19:36;97012.13;;;13.35;58.51
71917;BME280;59793;46.506;6.674;2023-02-22T12:22:14;97014.94;;;13.19;58.39
71917;BME280;59793;46.506;6.674;2023-02-22T12:24:45;97002.75;;;13.11;59.75
71917;BME280;59793;46.506;6.674;2023-02-22T12:30:06;97000.16;;;12.38;61.17
71917;BME280;59793;46.506;6.674;2023-02-22T12:32:44;96998.63;;;12.37;62.31
71917;BME280;59793;46.506;6.674;2023-02-22T12:35:18;97009.91;;;12.34;62.74
71917;BME280;59793;46.506;6.674;2023-02-22T12:54:27;96990.63;;;11.88;64.12
71917;BME280;59793;46.506;6.674;2023-02-22T12:57:13;97005.66;;;11.84;64.66
71917;BME280;59793;46.506;6.674;2023-02-22T12:59:47;96988.06;;;11.53;65.44
71917;BME280;59793;46.506;6.674;2023-02-22T13:04:59;97003.88;;;11.33;66.49
71917;BME280;59793;46.506;6.674;2023-02-22T13:10:33;97001.88;;;11.46;66.28
71917;BME280;59793;46.506;6.674;2023-02-22T13:16:03;97004.66;;;11.53;66.34
71917;BME280;59793;46.506;6.674;2023-02-22T13:21:13;97009.09;;;11.49;68.06
71917;BME280;59793;46.506;6.674;2023-02-22T13:23:49;96997.69;;;11.25;68.91
71917;BME280;59793;46.506;6.674;2023-02-22T13:26:28;96989.72;;;11.22;69.20
71917;BME280;59793;46.506;6.674;2023-02-22T13:29:04;96993.19;;;11.26;70.42
71917;BME280;59793;46.506;6.674;2023-02-22T13:51:31;96991.03;;;11.32;74.68
71917;BME280;59793;46.506;6.674;2023-02-22T13:54:07;96988.81;;;11.34;73.96
71917;BME280;59793;46.506;6.674;2023-02-22T13:56:41;96967.63;;;11.11;74.16
71917;BME280;59793;46.506;6.674;2023-02-22T13:59:25;96983.53;;;11.14;74.85
71917;BME280;59793;46.506;6.674;2023-02-22T14:01:52;96998.13;;;10.92;74.98
71917;BME280;59793;46.506;6.674;2023-02-22T14:07:00;96972.41;;;10.70;75.58
71917;BME280;59793;46.506;6.674;2023-02-22T14:09:49;97000.50;;;10.97;76.02
71917;BME280;59793;46.506;6.674;2023-02-22T14:17:41;96976.97;;;10.89;75.36
71917;BME280;59793;46.506;6.674;2023-02-22T14:22:45;96992.47;;;10.74;76.29
71917;BME280;59793;46.506;6.674;2023-02-22T14:25:30;96995.03;;;11.06;75.94
71917;BME280;59793;46.506;6.674;2023-02-22T14:27:57;96970.19;;;11.07;75.22
71917;BME280;59793;46.506;6.674;2023-02-22T14:30:26;96963.41;;;11.06;74.82
71917;BME280;59793;46.506;6.674;2023-02-22T14:32:52;96958.44;;;10.85;75.15
71917;BME280;59793;46.506;6.674;2023-02-22T14:35:19;96964.56;;;11.09;75.07
71917;BME280;59793;46.506;6.674;2023-02-22T14:37:51;96961.75;;;11.37;74.85
71917;BME280;59793;46.506;6.674;2023-02-22T14:40:24;96966.19;;;11.52;74.43
71917;BME280;59793;46.506;6.674;2023-02-22T14:43:00;96981.94;;;11.68;73.96
71917;BME280;59793;46.506;6.674;2023-02-22T14:45:30;96936.19;;;11.41;73.76
71917;BME280;59793;46.506;6.674;2023-02-22T14:48:21;96964.84;;;11.23;74.87
71917;BME280;59793;46.506;6.674;2023-02-22T14:51:18;96976.66;;;11.10;75.26
71917;BME280;59793;46.506;6.674;2023-02-22T14:53:50;96989.41;;;11.27;75.61
71917;BME280;59793;46.506;6.674;2023-02-22T14:59:21;96934.34;;;11.03;74.20
71917;BME280;59793;46.506;6.674;2023-02-22T15:01:48;96980.91;;;11.53;73.68
71917;BME280;59793;46.506;6.674;2023-02-22T15:06:46;96982.38;;;11.70;72.28
71917;BME280;59793;46.506;6.674;2023-02-22T15:09:26;96965.34;;;11.48;72.26
71917;BME280;59793;46.506;6.674;2023-02-22T15:11:53;96985.13;;;11.58;73.16
71917;BME280;59793;46.506;6.674;2023-02-22T15:14:24;96986.09;;;11.69;71.93
71917;BME280;59793;46.506;6.674;2023-02-22T15:16:54;96951.88;;;11.53;71.89
71917;BME280;59793;46.506;6.674;2023-02-22T15:19:26;96980.75;;;11.65;71.85
71917;BME280;59793;46.506;6.674;2023-02-22T15:21:54;96953.91;;;11.40;72.67
71917;BME280;59793;46.506;6.674;2023-02-22T15:24:23;96981.97;;;11.48;73.03
71917;BME280;59793;46.506;6.674;2023-02-22T15:26:49;96990.44;;;11.38;73.11
71917;BME280;59793;46.506;6.674;2023-02-22T15:29:23;96990.00;;;11.36;74.03
71917;BME280;59793;46.506;6.674;2023-02-22T15:31:51;96986.09;;;11.30;74.54
71917;BME280;59793;46.506;6.674;2023-02-22T15:34:19;96968.53;;;11.18;75.07
71917;BME280;59793;46.506;6.674;2023-02-22T15:36:50;96966.13;;;11.10;74.91
71917;BME280;59793;46.506;6.674;2023-02-22T15:39:30;96949.72;;;11.00;74.44
71917;BME280;59793;46.506;6.674;2023-02-22T15:42:16;96987.50;;;11.24;74.92
71917;BME280;59793;46.506;6.674;2023-02-22T15:44:52;96984.72;;;11.17;74.38